sensor_id;sensor_type;location;lat;lon;timestamp;P1;durP1;ratioP1;P2;durP2;ratioP2
29238;SDS011;16267;48.194;11.546;2023-02-18T00:04:33;5.50;;;2.40;;
29238;SDS011;16267;48.194;11.546;2023-02-18T00:06:59;3.88;;;2.22;;
29238;SDS011;16267;48.194;11.546;2023-02-18T00:09:28;4.20;;;2.63;;
29238;SDS011;16267;48.194;11.546;2023-02-18T00:12:03;4.93;;;2.85;;
29238;SDS011;16267;48.194;11.546;2023-02-18T00:14:49;3.13;;;2.40;;
29238;SDS011;16267;48.194;11.546;2023-02-18T00:17:15;8.43;;;2.90;;
29238;SDS011;16267;48.194;11.546;2023-02-18T00:19:42;5.57;;;2.63;;
29238;SDS011;16267;48.194;11.546;2023-02-18T00:22:08;6.97;;;3.08;;
29238;SDS011;16267;48.194;11.546;2023-02-18T00:24:33;5.15;;;2.78;;
29238;SDS011;16267;48.194;11.546;2023-02-18T00:26:59;5.15;;;2.72;;
29238;SDS011;16267;48.194;11.546;2023-02-18T00:29:40;6.50;;;3.00;;
29238;SDS011;16267;48.194;11.546;2023-02-18T00:32:06;7.22;;;2.75;;
29238;SDS011;16267;48.194;11.546;2023-02-18T00:34:32;5.30;;;2.85;;
29238;SDS011;16267;48.194;11.546;2023-02-18T00:36:58;7.18;;;3.05;;
29238;SDS011;16267;48.194;11.546;2023-02-18T00:39:23;6.78;;;3.45;;
29238;SDS011;16267;48.194;11.546;2023-02-18T00:41:49;5.30;;;2.90;;
29238;SDS011;16267;48.194;11.546;2023-02-18T00:44:15;6.32;;;2.67;;
29238;SDS011;16267;48.194;11.546;2023-02-18T00:46:44;7.38;;;2.88;;
29238;SDS011;16267;48.194;11.546;2023-02-18T00:49:12;5.68;;;2.30;;
29238;SDS011;16267;48.194;11.546;2023-02-18T00:54:32;4.28;;;2.38;;
29238;SDS011;16267;48.194;11.546;2023-02-18T00:57:01;4.40;;;2.58;;
29238;SDS011;16267;48.194;11.546;2023-02-18T00:59:27;4.18;;;2.20;;
29238;SDS011;16267;48.194;11.546;2023-02-18T01:01:59;7.55;;;2.33;;
29238;SDS011;16267;48.194;11.546;2023-02-18T01:04:30;3.75;;;2.30;;
29238;SDS011;16267;48.194;11.546;2023-02-18T01:06:56;5.68;;;2.13;;
29238;SDS011;16267;48.194;11.546;2023-02-18T01:12:12;4.22;;;2.30;;
29238;SDS011;16267;48.194;11.546;2023-02-18T01:22:20;6.72;;;2.15;;
29238;SDS011;16267;48.194;11.546;2023-02-18T01:29:20;4.38;;;2.03;;
29238;SDS011;16267;48.194;11.546;2023-02-18T01:36:41;5.63;;;2.28;;
29238;SDS011;16267;48.194;11.546;2023-02-18T01:39:07;3.88;;;1.98;;
29238;SDS011;16267;48.194;11.546;2023-02-18T01:41:32;6.30;;;1.90;;
29238;SDS011;16267;48.194;11.546;2023-02-18T01:46:49;3.28;;;1.92;;
29238;SDS011;16267;48.194;11.546;2023-02-18T01:49:17;3.08;;;2.03;;
29238;SDS011;16267;48.194;11.546;2023-02-18T01:51:51;4.32;;;2.15;;
29238;SDS011;16267;48.194;11.546;2023-02-18T01:54:26;4.38;;;1.92;;
29238;SDS011;16267;48.194;11.546;2023-02-18T01:59:55;3.97;;;2.25;;
29238;SDS011;16267;48.194;11.546;2023-02-18T02:02:46;3.53;;;2.13;;
29238;SDS011;16267;48.194;11.546;2023-02-18T02:05:15;4.50;;;2.03;;
29238;SDS011;16267;48.194;11.546;2023-02-18T02:07:42;5.10;;;2.30;;
29238;SDS011;16267;48.194;11.546;2023-02-18T02:10:11;5.22;;;2.20;;
29238;SDS011;16267;48.194;11.546;2023-02-18T02:21:57;6.28;;;2.70;;
29238;SDS011;16267;48.194;11.546;2023-02-18T02:24:41;5.00;;;2.60;;
29238;SDS011;16267;48.194;11.546;2023-02-18T02:51:19;4.05;;;2.22;;
29238;SDS011;16267;48.194;11.546;2023-02-18T02:53:54;6.03;;;2.22;;
29238;SDS011;16267;48.194;11.546;2023-02-18T02:59:04;4.20;;;2.10;;
29238;SDS011;16267;48.194;11.546;2023-02-18T03:01:36;2.92;;;1.90;;
29238;SDS011;16267;48.194;11.546;2023-02-18T03:09:50;3.65;;;1.80;;
29238;SDS011;16267;48.194;11.546;2023-02-18T03:18:22;4.03;;;1.52;;
29238;SDS011;16267;48.194;11.546;2023-02-18T03:24:33;3.63;;;1.92;;
29238;SDS011;16267;48.194;11.546;2023-02-18T03:26:55;2.47;;;1.52;;
29238;SDS011;16267;48.194;11.546;2023-02-18T03:29:28;2.40;;;1.88;;
29238;SDS011;16267;48.194;11.546;2023-02-18T03:31:56;2.53;;;1.60;;
29238;SDS011;16267;48.194;11.546;2023-02-18T03:34:29;3.40;;;1.70;;
29238;SDS011;16267;48.194;11.546;2023-02-18T03:37:00;3.97;;;1.90;;
29238;SDS011;16267;48.194;11.546;2023-02-18T03:39:27;6.97;;;1.98;;
29238;SDS011;16267;48.194;11.546;2023-02-18T03:41:56;2.20;;;1.75;;
29238;SDS011;16267;48.194;11.546;2023-02-18T03:44:23;3.65;;;1.77;;
29238;SDS011;16267;48.194;11.546;2023-02-18T03:46:50;2.10;;;1.38;;
29238;SDS011;16267;48.194;11.546;2023-02-18T03:49:16;2.95;;;1.67;;
29238;SDS011;16267;48.194;11.546;2023-02-18T03:51:42;3.08;;;1.23;;
29238;SDS011;16267;48.194;11.546;2023-02-18T03:54:08;4.53;;;1.60;;
29238;SDS011;16267;48.194;11.546;2023-02-18T03:56:35;3.33;;;1.70;;
29238;SDS011;16267;48.194;11.546;2023-02-18T03:59:02;2.85;;;1.50;;
29238;SDS011;16267;48.194;11.546;2023-02-18T04:01:28;4.38;;;1.83;;
29238;SDS011;16267;48.194;11.546;2023-02-18T04:03:54;2.55;;;1.48;;
29238;SDS011;16267;48.194;11.546;2023-02-18T04:06:23;1.75;;;1.45;;
29238;SDS011;16267;48.194;11.546;2023-02-18T04:08:49;2.70;;;1.67;;
29238;SDS011;16267;48.194;11.546;2023-02-18T04:11:15;2.85;;;1.80;;
29238;SDS011;16267;48.194;11.546;2023-02-18T04:13:41;2.65;;;1.75;;
29238;SDS011;16267;48.194;11.546;2023-02-18T04:16:07;2.15;;;1.38;;
29238;SDS011;16267;48.194;11.546;2023-02-18T04:18:33;1.42;;;1.20;;
29238;SDS011;16267;48.194;11.546;2023-02-18T04:20:58;3.42;;;1.30;;
29238;SDS011;16267;48.194;11.546;2023-02-18T04:23:24;2.60;;;1.58;;
29238;SDS011;16267;48.194;11.546;2023-02-18T04:25:50;1.95;;;1.55;;
29238;SDS011;16267;48.194;11.546;2023-02-18T04:28:16;2.58;;;1.50;;
29238;SDS011;16267;48.194;11.546;2023-02-18T04:30:42;1.67;;;1.40;;
29238;SDS011;16267;48.194;11.546;2023-02-18T04:33:10;2.75;;;1.50;;
29238;SDS011;16267;48.194;11.546;2023-02-18T04:35:36;1.75;;;1.52;;
29238;SDS011;16267;48.194;11.546;2023-02-18T04:38:04;2.42;;;1.58;;
29238;SDS011;16267;48.194;11.546;2023-02-18T04:40:32;4.55;;;1.90;;
29238;SDS011;16267;48.194;11.546;2023-02-18T04:42:58;2.28;;;1.70;;
29238;SDS011;16267;48.194;11.546;2023-02-18T04:45:25;3.53;;;1.83;;
29238;SDS011;16267;48.194;11.546;2023-02-18T04:47:52;4.13;;;2.08;;
29238;SDS011;16267;48.194;11.546;2023-02-18T04:50:18;2.53;;;1.75;;
29238;SDS011;16267;48.194;11.546;2023-02-18T04:52:44;2.83;;;1.80;;
29238;SDS011;16267;48.194;11.546;2023-02-18T04:55:10;2.50;;;1.67;;
29238;SDS011;16267;48.194;11.546;2023-02-18T04:57:36;2.28;;;1.40;;
29238;SDS011;16267;48.194;11.546;2023-02-18T05:00:03;4.75;;;1.52;;
29238;SDS011;16267;48.194;11.546;2023-02-18T05:02:31;2.75;;;1.40;;
29238;SDS011;16267;48.194;11.546;2023-02-18T05:04:57;2.67;;;1.55;;
29238;SDS011;16267;48.194;11.546;2023-02-18T05:07:23;1.90;;;1.33;;
29238;SDS011;16267;48.194;11.546;2023-02-18T05:09:49;3.85;;;1.40;;
29238;SDS011;16267;48.194;11.546;2023-02-18T05:12:15;3.00;;;1.73;;
29238;SDS011;16267;48.194;11.546;2023-02-18T05:14:41;2.17;;;1.40;;
29238;SDS011;16267;48.194;11.546;2023-02-18T05:17:06;3.00;;;1.50;;
29238;SDS011;16267;48.194;11.546;2023-02-18T05:19:32;4.07;;;1.27;;
29238;SDS011;16267;48.194;11.546;2023-02-18T05:21:58;2.10;;;1.15;;
29238;SDS011;16267;48.194;11.546;2023-02-18T05:24:24;4.80;;;1.70;;
29238;SDS011;16267;48.194;11.546;2023-02-18T05:26:49;2.05;;;1.20;;
29238;SDS011;16267;48.194;11.546;2023-02-18T05:29:15;2.17;;;1.30;;
29238;SDS011;16267;48.194;11.546;2023-02-18T05:31:41;2.47;;;1.40;;
29238;SDS011;16267;48.194;11.546;2023-02-18T05:34:07;3.10;;;1.65;;
29238;SDS011;16267;48.194;11.546;2023-02-18T05:36:32;2.33;;;1.38;;
29238;SDS011;16267;48.194;11.546;2023-02-18T05:38:58;2.40;;;1.33;;
29238;SDS011;16267;48.194;11.546;2023-02-18T05:41:24;1.83;;;1.20;;
29238;SDS011;16267;48.194;11.546;2023-02-18T05:43:50;1.45;;;1.02;;
29238;SDS011;16267;48.194;11.546;2023-02-18T05:46:34;2.50;;;1.30;;
29238;SDS011;16267;48.194;11.546;2023-02-18T05:49:00;1.27;;;0.85;;
29238;SDS011;16267;48.194;11.546;2023-02-18T05:51:25;1.55;;;1.20;;
29238;SDS011;16267;48.194;11.546;2023-02-18T05:53:51;1.20;;;0.90;;
29238;SDS011;16267;48.194;11.546;2023-02-18T05:56:17;1.25;;;1.13;;
29238;SDS011;16267;48.194;11.546;2023-02-18T05:58:43;2.88;;;1.40;;
29238;SDS011;16267;48.194;11.546;2023-02-18T06:01:09;1.00;;;0.70;;
29238;SDS011;16267;48.194;11.546;2023-02-18T06:03:35;2.22;;;0.90;;
29238;SDS011;16267;48.194;11.546;2023-02-18T06:06:00;1.25;;;0.80;;
29238;SDS011;16267;48.194;11.546;2023-02-18T06:08:26;2.15;;;0.80;;
29238;SDS011;16267;48.194;11.546;2023-02-18T06:10:52;1.45;;;0.68;;
29238;SDS011;16267;48.194;11.546;2023-02-18T06:13:18;1.42;;;0.80;;
29238;SDS011;16267;48.194;11.546;2023-02-18T06:15:44;2.63;;;0.77;;
29238;SDS011;16267;48.194;11.546;2023-02-18T06:18:10;1.85;;;0.60;;
29238;SDS011;16267;48.194;11.546;2023-02-18T06:20:37;1.30;;;0.70;;
29238;SDS011;16267;48.194;11.546;2023-02-18T06:23:04;0.85;;;0.60;;
29238;SDS011;16267;48.194;11.546;2023-02-18T06:25:30;3.38;;;0.70;;
29238;SDS011;16267;48.194;11.546;2023-02-18T06:27:56;0.60;;;0.50;;
29238;SDS011;16267;48.194;11.546;2023-02-18T06:30:21;1.25;;;0.63;;
29238;SDS011;16267;48.194;11.546;2023-02-18T06:32:47;0.80;;;0.60;;
29238;SDS011;16267;48.194;11.546;2023-02-18T06:35:13;0.50;;;0.50;;
29238;SDS011;16267;48.194;11.546;2023-02-18T06:37:39;1.23;;;0.82;;
29238;SDS011;16267;48.194;11.546;2023-02-18T06:40:04;2.00;;;0.60;;
29238;SDS011;16267;48.194;11.546;2023-02-18T06:42:31;1.33;;;0.60;;
29238;SDS011;16267;48.194;11.546;2023-02-18T06:44:57;0.60;;;0.50;;
29238;SDS011;16267;48.194;11.546;2023-02-18T06:47:23;1.05;;;0.55;;
29238;SDS011;16267;48.194;11.546;2023-02-18T06:49:48;0.55;;;0.55;;
29238;SDS011;16267;48.194;11.546;2023-02-18T06:52:14;0.80;;;0.60;;
29238;SDS011;16267;48.194;11.546;2023-02-18T06:54:40;0.55;;;0.50;;
29238;SDS011;16267;48.194;11.546;2023-02-18T06:57:06;0.73;;;0.50;;
29238;SDS011;16267;48.194;11.546;2023-02-18T06:59:32;0.95;;;0.50;;
29238;SDS011;16267;48.194;11.546;2023-02-18T07:01:58;0.73;;;0.60;;
29238;SDS011;16267;48.194;11.546;2023-02-18T07:04:23;2.13;;;0.60;;
29238;SDS011;16267;48.194;11.546;2023-02-18T07:06:49;1.80;;;0.57;;
29238;SDS011;16267;48.194;11.546;2023-02-18T07:09:15;1.02;;;0.60;;
29238;SDS011;16267;48.194;11.546;2023-02-18T07:11:41;1.05;;;0.70;;
29238;SDS011;16267;48.194;11.546;2023-02-18T07:14:09;0.50;;;0.50;;
29238;SDS011;16267;48.194;11.546;2023-02-18T07:16:35;0.43;;;0.30;;
29238;SDS011;16267;48.194;11.546;2023-02-18T07:19:01;1.60;;;0.68;;
29238;SDS011;16267;48.194;11.546;2023-02-18T07:21:27;0.47;;;0.40;;
29238;SDS011;16267;48.194;11.546;2023-02-18T07:23:53;1.35;;;0.60;;
29238;SDS011;16267;48.194;11.546;2023-02-18T07:26:19;0.80;;;0.52;;
29238;SDS011;16267;48.194;11.546;2023-02-18T07:28:45;0.50;;;0.50;;
29238;SDS011;16267;48.194;11.546;2023-02-18T07:31:10;0.40;;;0.40;;
29238;SDS011;16267;48.194;11.546;2023-02-18T07:33:36;0.70;;;0.50;;
29238;SDS011;16267;48.194;11.546;2023-02-18T07:36:02;1.08;;;0.50;;
29238;SDS011;16267;48.194;11.546;2023-02-18T07:38:28;0.70;;;0.40;;
29238;SDS011;16267;48.194;11.546;2023-02-18T07:40:55;1.05;;;0.55;;
29238;SDS011;16267;48.194;11.546;2023-02-18T07:43:22;1.20;;;0.50;;
29238;SDS011;16267;48.194;11.546;2023-02-18T07:45:48;0.98;;;0.60;;
29238;SDS011;16267;48.194;11.546;2023-02-18T07:48:15;0.88;;;0.55;;
29238;SDS011;16267;48.194;11.546;2023-02-18T07:50:41;0.88;;;0.55;;
29238;SDS011;16267;48.194;11.546;2023-02-18T07:53:10;2.63;;;0.30;;
29238;SDS011;16267;48.194;11.546;2023-02-18T07:55:37;0.68;;;0.40;;
29238;SDS011;16267;48.194;11.546;2023-02-18T07:58:16;1.10;;;0.70;;
29238;SDS011;16267;48.194;11.546;2023-02-18T08:00:45;0.70;;;0.50;;
29238;SDS011;16267;48.194;11.546;2023-02-18T08:03:13;2.20;;;0.40;;
29238;SDS011;16267;48.194;11.546;2023-02-18T08:05:41;0.47;;;0.40;;
29238;SDS011;16267;48.194;11.546;2023-02-18T08:08:10;1.33;;;0.60;;
29238;SDS011;16267;48.194;11.546;2023-02-18T08:10:44;1.30;;;0.50;;
29238;SDS011;16267;48.194;11.546;2023-02-18T08:13:11;1.80;;;0.50;;
29238;SDS011;16267;48.194;11.546;2023-02-18T08:15:37;2.60;;;0.50;;
29238;SDS011;16267;48.194;11.546;2023-02-18T08:18:04;1.73;;;0.50;;
29238;SDS011;16267;48.194;11.546;2023-02-18T08:20:35;0.65;;;0.50;;
29238;SDS011;16267;48.194;11.546;2023-02-18T08:23:02;2.53;;;1.02;;
29238;SDS011;16267;48.194;11.546;2023-02-18T08:25:30;0.60;;;0.40;;
29238;SDS011;16267;48.194;11.546;2023-02-18T08:27:56;0.50;;;0.45;;
29238;SDS011;16267;48.194;11.546;2023-02-18T08:30:23;0.68;;;0.50;;
29238;SDS011;16267;48.194;11.546;2023-02-18T08:32:50;1.50;;;0.45;;
29238;SDS011;16267;48.194;11.546;2023-02-18T08:35:18;0.50;;;0.38;;
29238;SDS011;16267;48.194;11.546;2023-02-18T08:37:43;5.38;;;0.50;;
29238;SDS011;16267;48.194;11.546;2023-02-18T08:40:10;0.73;;;0.40;;
29238;SDS011;16267;48.194;11.546;2023-02-18T08:42:38;0.50;;;0.47;;
29238;SDS011;16267;48.194;11.546;2023-02-18T08:45:04;0.90;;;0.47;;
29238;SDS011;16267;48.194;11.546;2023-02-18T08:47:31;2.13;;;0.40;;
29238;SDS011;16267;48.194;11.546;2023-02-18T08:49:57;3.08;;;0.50;;
29238;SDS011;16267;48.194;11.546;2023-02-18T08:52:23;4.28;;;0.55;;
29238;SDS011;16267;48.194;11.546;2023-02-18T08:54:50;0.47;;;0.30;;
29238;SDS011;16267;48.194;11.546;2023-02-18T08:57:16;1.30;;;0.40;;
29238;SDS011;16267;48.194;11.546;2023-02-18T08:59:41;0.43;;;0.40;;
29238;SDS011;16267;48.194;11.546;2023-02-18T09:02:08;0.98;;;0.45;;
29238;SDS011;16267;48.194;11.546;2023-02-18T09:04:38;1.40;;;0.57;;
29238;SDS011;16267;48.194;11.546;2023-02-18T09:07:04;0.75;;;0.50;;
29238;SDS011;16267;48.194;11.546;2023-02-18T09:09:30;0.55;;;0.50;;
29238;SDS011;16267;48.194;11.546;2023-02-18T09:11:56;0.90;;;0.50;;
29238;SDS011;16267;48.194;11.546;2023-02-18T09:14:22;3.63;;;0.68;;
29238;SDS011;16267;48.194;11.546;2023-02-18T09:16:48;3.33;;;0.55;;
29238;SDS011;16267;48.194;11.546;2023-02-18T09:19:14;2.88;;;0.50;;
29238;SDS011;16267;48.194;11.546;2023-02-18T09:21:41;0.93;;;0.57;;
29238;SDS011;16267;48.194;11.546;2023-02-18T09:24:07;1.48;;;0.40;;
29238;SDS011;16267;48.194;11.546;2023-02-18T09:26:34;1.23;;;0.57;;
29238;SDS011;16267;48.194;11.546;2023-02-18T09:29:00;1.38;;;0.50;;
29238;SDS011;16267;48.194;11.546;2023-02-18T09:31:26;0.85;;;0.47;;
29238;SDS011;16267;48.194;11.546;2023-02-18T09:33:55;0.90;;;0.50;;
29238;SDS011;16267;48.194;11.546;2023-02-18T09:36:23;0.70;;;0.40;;
29238;SDS011;16267;48.194;11.546;2023-02-18T09:38:49;2.03;;;1.05;;
29238;SDS011;16267;48.194;11.546;2023-02-18T09:47:17;0.77;;;0.50;;
29238;SDS011;16267;48.194;11.546;2023-02-18T09:50:10;0.93;;;0.40;;
29238;SDS011;16267;48.194;11.546;2023-02-18T09:52:42;0.63;;;0.50;;
29238;SDS011;16267;48.194;11.546;2023-02-18T09:57:53;0.80;;;0.50;;
29238;SDS011;16267;48.194;11.546;2023-02-18T10:00:28;1.17;;;0.60;;
29238;SDS011;16267;48.194;11.546;2023-02-18T10:03:18;3.08;;;0.60;;
29238;SDS011;16267;48.194;11.546;2023-02-18T10:06:04;1.95;;;0.50;;
29238;SDS011;16267;48.194;11.546;2023-02-18T10:08:53;0.90;;;0.60;;
29238;SDS011;16267;48.194;11.546;2023-02-18T10:13:57;2.80;;;1.40;;
29238;SDS011;16267;48.194;11.546;2023-02-18T10:16:25;0.90;;;0.60;;
29238;SDS011;16267;48.194;11.546;2023-02-18T10:18:52;1.40;;;0.55;;
29238;SDS011;16267;48.194;11.546;2023-02-18T10:21:26;2.22;;;0.50;;
29238;SDS011;16267;48.194;11.546;2023-02-18T10:26:37;0.70;;;0.50;;
29238;SDS011;16267;48.194;11.546;2023-02-18T10:29:05;2.55;;;0.75;;
29238;SDS011;16267;48.194;11.546;2023-02-18T10:31:42;0.70;;;0.57;;
29238;SDS011;16267;48.194;11.546;2023-02-18T10:34:19;1.92;;;1.02;;
29238;SDS011;16267;48.194;11.546;2023-02-18T10:40:02;1.17;;;0.70;;
29238;SDS011;16267;48.194;11.546;2023-02-18T10:46:23;2.47;;;0.90;;
29238;SDS011;16267;48.194;11.546;2023-02-18T10:52:21;5.20;;;0.90;;
29238;SDS011;16267;48.194;11.546;2023-02-18T10:54:57;4.20;;;0.80;;
29238;SDS011;16267;48.194;11.546;2023-02-18T10:57:47;3.33;;;0.77;;
29238;SDS011;16267;48.194;11.546;2023-02-18T11:00:20;3.40;;;0.60;;
29238;SDS011;16267;48.194;11.546;2023-02-18T11:05:40;1.75;;;1.17;;
29238;SDS011;16267;48.194;11.546;2023-02-18T11:08:08;1.52;;;1.00;;
29238;SDS011;16267;48.194;11.546;2023-02-18T11:10:41;2.28;;;1.00;;
29238;SDS011;16267;48.194;11.546;2023-02-18T11:13:11;1.95;;;1.00;;
29238;SDS011;16267;48.194;11.546;2023-02-18T11:16:34;1.77;;;0.60;;
29238;SDS011;16267;48.194;11.546;2023-02-18T11:18:43;1.70;;;0.70;;
29238;SDS011;16267;48.194;11.546;2023-02-18T11:23:56;3.22;;;1.75;;
29238;SDS011;16267;48.194;11.546;2023-02-18T11:26:34;2.03;;;1.15;;
29238;SDS011;16267;48.194;11.546;2023-02-18T11:29:07;1.65;;;0.70;;
29238;SDS011;16267;48.194;11.546;2023-02-18T11:31:48;3.70;;;0.52;;
29238;SDS011;16267;48.194;11.546;2023-02-18T11:34:19;0.45;;;0.40;;
29238;SDS011;16267;48.194;11.546;2023-02-18T11:36:51;4.18;;;1.10;;
29238;SDS011;16267;48.194;11.546;2023-02-18T11:39:27;1.45;;;0.80;;
29238;SDS011;16267;48.194;11.546;2023-02-18T11:41:57;0.73;;;0.60;;
29238;SDS011;16267;48.194;11.546;2023-02-18T11:46:59;3.80;;;0.47;;
29238;SDS011;16267;48.194;11.546;2023-02-18T11:49:30;6.80;;;0.90;;
29238;SDS011;16267;48.194;11.546;2023-02-18T11:52:03;6.00;;;3.83;;
29238;SDS011;16267;48.194;11.546;2023-02-18T11:57:26;3.25;;;0.70;;
29238;SDS011;16267;48.194;11.546;2023-02-18T11:59:53;3.67;;;2.10;;
29238;SDS011;16267;48.194;11.546;2023-02-18T12:05:04;2.33;;;1.52;;
29238;SDS011;16267;48.194;11.546;2023-02-18T12:08:02;3.92;;;1.40;;
29238;SDS011;16267;48.194;11.546;2023-02-18T12:10:33;6.43;;;3.28;;
29238;SDS011;16267;48.194;11.546;2023-02-18T12:28:03;3.25;;;0.80;;
29238;SDS011;16267;48.194;11.546;2023-02-18T12:48:08;2.72;;;1.50;;
29238;SDS011;16267;48.194;11.546;2023-02-18T12:50:34;3.40;;;1.75;;
29238;SDS011;16267;48.194;11.546;2023-02-18T12:59:07;4.63;;;1.00;;
29238;SDS011;16267;48.194;11.546;2023-02-18T13:02:03;1.52;;;0.77;;
29238;SDS011;16267;48.194;11.546;2023-02-18T13:13:18;1.33;;;1.05;;
29238;SDS011;16267;48.194;11.546;2023-02-18T13:15:49;1.52;;;0.82;;
29238;SDS011;16267;48.194;11.546;2023-02-18T13:18:39;6.47;;;4.45;;
29238;SDS011;16267;48.194;11.546;2023-02-18T13:21:27;3.33;;;0.90;;
29238;SDS011;16267;48.194;11.546;2023-02-18T13:23:59;4.07;;;0.80;;
29238;SDS011;16267;48.194;11.546;2023-02-18T13:26:33;2.47;;;1.20;;
29238;SDS011;16267;48.194;11.546;2023-02-18T13:29:07;2.70;;;0.80;;
29238;SDS011;16267;48.194;11.546;2023-02-18T13:40:21;2.03;;;0.77;;
29238;SDS011;16267;48.194;11.546;2023-02-18T13:42:54;3.05;;;0.98;;
29238;SDS011;16267;48.194;11.546;2023-02-18T13:45:40;6.95;;;3.13;;
29238;SDS011;16267;48.194;11.546;2023-02-18T13:48:20;4.55;;;1.25;;
29238;SDS011;16267;48.194;11.546;2023-02-18T13:53:57;3.63;;;1.08;;
29238;SDS011;16267;48.194;11.546;2023-02-18T13:56:42;6.63;;;1.30;;
29238;SDS011;16267;48.194;11.546;2023-02-18T14:00:18;1.77;;;1.02;;
29238;SDS011;16267;48.194;11.546;2023-02-18T14:02:57;3.17;;;0.93;;
29238;SDS011;16267;48.194;11.546;2023-02-18T14:05:57;3.20;;;1.02;;
29238;SDS011;16267;48.194;11.546;2023-02-18T14:08:36;4.55;;;0.88;;
29238;SDS011;16267;48.194;11.546;2023-02-18T14:13:42;1.50;;;0.90;;
29238;SDS011;16267;48.194;11.546;2023-02-18T14:16:24;2.78;;;0.80;;
29238;SDS011;16267;48.194;11.546;2023-02-18T14:18:54;1.92;;;0.85;;
29238;SDS011;16267;48.194;11.546;2023-02-18T14:21:39;1.20;;;0.90;;
29238;SDS011;16267;48.194;11.546;2023-02-18T14:24:09;1.88;;;0.90;;
29238;SDS011;16267;48.194;11.546;2023-02-18T14:26:42;3.75;;;0.80;;
29238;SDS011;16267;48.194;11.546;2023-02-18T14:29:14;4.30;;;1.25;;
29238;SDS011;16267;48.194;11.546;2023-02-18T14:31:53;1.15;;;0.90;;
29238;SDS011;16267;48.194;11.546;2023-02-18T14:40:20;2.05;;;0.70;;
29238;SDS011;16267;48.194;11.546;2023-02-18T14:43:15;1.90;;;0.75;;
29238;SDS011;16267;48.194;11.546;2023-02-18T14:46:02;0.90;;;0.70;;
29238;SDS011;16267;48.194;11.546;2023-02-18T14:48:56;1.55;;;0.88;;
29238;SDS011;16267;48.194;11.546;2023-02-18T14:51:51;2.50;;;1.00;;
29238;SDS011;16267;48.194;11.546;2023-02-18T14:54:20;2.55;;;0.75;;
29238;SDS011;16267;48.194;11.546;2023-02-18T14:57:00;2.55;;;1.00;;
29238;SDS011;16267;48.194;11.546;2023-02-18T14:59:39;1.05;;;0.60;;
29238;SDS011;16267;48.194;11.546;2023-02-18T15:02:17;3.17;;;0.60;;
29238;SDS011;16267;48.194;11.546;2023-02-18T15:04:51;2.17;;;0.50;;
29238;SDS011;16267;48.194;11.546;2023-02-18T15:07:19;1.77;;;0.50;;
29238;SDS011;16267;48.194;11.546;2023-02-18T15:09:47;1.15;;;0.50;;
29238;SDS011;16267;48.194;11.546;2023-02-18T15:12:37;1.95;;;0.45;;
29238;SDS011;16267;48.194;11.546;2023-02-18T15:15:06;1.55;;;0.70;;
29238;SDS011;16267;48.194;11.546;2023-02-18T15:17:45;1.00;;;0.70;;
29238;SDS011;16267;48.194;11.546;2023-02-18T15:20:13;4.00;;;1.00;;
29238;SDS011;16267;48.194;11.546;2023-02-18T15:22:42;1.17;;;0.80;;
29238;SDS011;16267;48.194;11.546;2023-02-18T15:25:11;0.70;;;0.60;;
29238;SDS011;16267;48.194;11.546;2023-02-18T15:27:41;1.92;;;0.85;;
29238;SDS011;16267;48.194;11.546;2023-02-18T15:30:19;2.78;;;1.33;;
29238;SDS011;16267;48.194;11.546;2023-02-18T15:32:52;5.22;;;1.55;;
29238;SDS011;16267;48.194;11.546;2023-02-18T15:35:22;8.15;;;4.63;;
29238;SDS011;16267;48.194;11.546;2023-02-18T15:37:54;2.33;;;0.80;;
29238;SDS011;16267;48.194;11.546;2023-02-18T15:40:23;1.60;;;0.88;;
29238;SDS011;16267;48.194;11.546;2023-02-18T15:45:24;1.23;;;0.50;;
29238;SDS011;16267;48.194;11.546;2023-02-18T15:48:05;0.95;;;0.60;;
29238;SDS011;16267;48.194;11.546;2023-02-18T15:50:44;2.28;;;0.60;;
29238;SDS011;16267;48.194;11.546;2023-02-18T15:53:16;3.17;;;0.60;;
29238;SDS011;16267;48.194;11.546;2023-02-18T15:55:45;0.82;;;0.60;;
29238;SDS011;16267;48.194;11.546;2023-02-18T16:01:06;1.05;;;0.50;;
29238;SDS011;16267;48.194;11.546;2023-02-18T16:03:51;1.40;;;0.60;;
29238;SDS011;16267;48.194;11.546;2023-02-18T16:06:21;0.50;;;0.40;;
29238;SDS011;16267;48.194;11.546;2023-02-18T16:11:43;0.95;;;0.70;;
29238;SDS011;16267;48.194;11.546;2023-02-18T16:14:34;2.85;;;0.80;;
29238;SDS011;16267;48.194;11.546;2023-02-18T16:20:14;0.88;;;0.57;;
29238;SDS011;16267;48.194;11.546;2023-02-18T16:22:46;0.70;;;0.55;;
29238;SDS011;16267;48.194;11.546;2023-02-18T16:25:21;3.20;;;0.60;;
29238;SDS011;16267;48.194;11.546;2023-02-18T16:27:52;1.10;;;0.63;;
29238;SDS011;16267;48.194;11.546;2023-02-18T16:30:29;1.35;;;0.70;;
29238;SDS011;16267;48.194;11.546;2023-02-18T16:33:00;2.63;;;1.23;;
29238;SDS011;16267;48.194;11.546;2023-02-18T16:35:26;3.17;;;0.82;;
29238;SDS011;16267;48.194;11.546;2023-02-18T16:37:54;1.77;;;0.82;;
29238;SDS011;16267;48.194;11.546;2023-02-18T16:40:34;1.13;;;0.65;;
29238;SDS011;16267;48.194;11.546;2023-02-18T16:43:10;1.75;;;0.80;;
29238;SDS011;16267;48.194;11.546;2023-02-18T16:45:48;0.90;;;0.75;;
29238;SDS011;16267;48.194;11.546;2023-02-18T16:48:19;1.00;;;0.70;;
29238;SDS011;16267;48.194;11.546;2023-02-18T16:50:52;1.88;;;0.70;;
29238;SDS011;16267;48.194;11.546;2023-02-18T16:53:18;4.30;;;2.47;;
29238;SDS011;16267;48.194;11.546;2023-02-18T16:55:44;1.90;;;0.93;;
29238;SDS011;16267;48.194;11.546;2023-02-18T16:58:10;2.20;;;1.33;;
29238;SDS011;16267;48.194;11.546;2023-02-18T17:00:36;1.30;;;0.80;;
29238;SDS011;16267;48.194;11.546;2023-02-18T17:03:03;3.20;;;0.88;;
29238;SDS011;16267;48.194;11.546;2023-02-18T17:05:31;2.65;;;1.13;;
29238;SDS011;16267;48.194;11.546;2023-02-18T17:08:15;1.92;;;0.80;;
29238;SDS011;16267;48.194;11.546;2023-02-18T17:10:55;1.15;;;0.82;;
29238;SDS011;16267;48.194;11.546;2023-02-18T17:13:30;3.70;;;0.75;;
29238;SDS011;16267;48.194;11.546;2023-02-18T17:15:57;2.10;;;0.80;;
29238;SDS011;16267;48.194;11.546;2023-02-18T17:18:23;1.45;;;0.80;;
29238;SDS011;16267;48.194;11.546;2023-02-18T17:20:50;1.88;;;0.80;;
29238;SDS011;16267;48.194;11.546;2023-02-18T17:23:18;0.82;;;0.63;;
29238;SDS011;16267;48.194;11.546;2023-02-18T17:25:50;1.02;;;0.80;;
29238;SDS011;16267;48.194;11.546;2023-02-18T17:28:16;3.25;;;1.00;;
29238;SDS011;16267;48.194;11.546;2023-02-18T17:30:44;2.70;;;0.70;;
29238;SDS011;16267;48.194;11.546;2023-02-18T17:33:15;2.00;;;0.90;;
29238;SDS011;16267;48.194;11.546;2023-02-18T17:35:43;1.75;;;0.70;;
29238;SDS011;16267;48.194;11.546;2023-02-18T17:38:10;1.15;;;0.88;;
29238;SDS011;16267;48.194;11.546;2023-02-18T17:40:38;1.50;;;0.90;;
29238;SDS011;16267;48.194;11.546;2023-02-18T17:43:04;1.88;;;0.98;;
29238;SDS011;16267;48.194;11.546;2023-02-18T17:45:32;1.67;;;1.10;;
29238;SDS011;16267;48.194;11.546;2023-02-18T17:48:01;4.43;;;1.08;;
29238;SDS011;16267;48.194;11.546;2023-02-18T17:50:28;1.40;;;0.82;;
29238;SDS011;16267;48.194;11.546;2023-02-18T17:52:55;4.13;;;1.10;;
29238;SDS011;16267;48.194;11.546;2023-02-18T17:55:22;2.38;;;1.02;;
29238;SDS011;16267;48.194;11.546;2023-02-18T17:57:50;1.23;;;0.90;;
29238;SDS011;16267;48.194;11.546;2023-02-18T18:00:19;2.00;;;1.10;;
29238;SDS011;16267;48.194;11.546;2023-02-18T18:02:58;5.38;;;0.90;;
29238;SDS011;16267;48.194;11.546;2023-02-18T18:05:25;3.85;;;1.00;;
29238;SDS011;16267;48.194;11.546;2023-02-18T18:07:54;3.67;;;1.02;;
29238;SDS011;16267;48.194;11.546;2023-02-18T18:10:21;1.33;;;1.00;;
29238;SDS011;16267;48.194;11.546;2023-02-18T18:12:54;2.67;;;0.95;;